This demonstration page uses our WeatherBlox Daily Observations layout. Learn more.

41.55636, -103.73856

Hourly Observations for January 4, 2019

Temp ( °F °C ) Dew Point ( °F °C ) Humidity (%) Winds ( mph kmh ) Pressure ( in mb ) Visibility ( mi km ) Precip ( " mm )
12:58 am 00:58 Mostly Clear 37 2.9 22 -5.8 53 53 WNW 16 26 30.04 1017 10 16.0934 N/A
1:58 am 01:58 Clear 37 2.9 21 -6 52 52 WNW 21 33 30.05 1018 10 16.0934 N/A
2:58 am 02:58 Clear 36 2.4 21 -5.9 55 55 WNW 16 26 30.06 1018 10 16.0934 N/A
5:58 am 05:58 Clear 38 3.3 20 -6.5 49 49 WNW 15 24 30 1016 10 16.0934 N/A
6:58 am 06:58 Clear 38 3.1 20 -6.7 49 49 WNW 17 28 29.98 1015 10 16.0934 N/A
7:58 am 07:58 Clear 39 3.8 20 -6.7 47 47 W 16 26 29.99 1016 10 16.0934 N/A
8:58 am 08:58 Clear 37 2.9 20 -6.7 50 50 WNW 17 28 29.99 1016 10 16.0934 N/A
9:58 am 09:58 Clear 35 1.7 20 -6.8 54 54 W 14 22 30 1016 10 16.0934 N/A
10:58 am 10:58 Clear 38 3.4 20 -6.9 47 47 WNW 20 31 29.98 1015 10 16.0934 N/A
11:58 am 11:58 Clear 38 3.4 19 -7.2 46 46 WNW 22 35 29.99 1016 10 16.0934 N/A
12:58 pm 12:58 Clear 38 3.4 19 -7.4 45 45 WNW 17 28 30 1016 10 16.0934 N/A
1:58 pm 13:58 Clear 38 3.4 19 -7.4 45 45 WNW 21 33 30.01 1016 10 16.0934 N/A
2:58 pm 14:58 Mostly Sunny 37 2.9 20 -6.8 49 49 W 16 26 30.03 1017 10 16.0934 N/A
3:58 pm 15:58 Sunny 41 5.1 20 -6.9 42 42 W 17 28 30.02 1017 10 16.0934 N/A
4:58 pm 16:58 Sunny 46 7.7 19 -7 35 35 WNW 17 28 30.01 1016 10 16.0934 N/A
5:58 pm 17:58 Sunny 49 9.6 20 -6.5 32 32 NW 20 31 29.98 1015 10 16.0934 N/A
6:58 pm 18:58 Sunny 52 11 20 -6.8 28 28 NW 20 31 29.94 1014 10 16.0934 N/A
7:58 pm 19:58 Sunny 53 11.7 19 -7.3 26 26 WNW 22 35 29.92 1013 10 16.0934 N/A
8:58 pm 20:58 Sunny 53 11.9 20 -6.9 26 26 NW 20 31 29.93 1014 10 16.0934 N/A
9:58 pm 21:58 Sunny 53 11.6 18 -8 25 25 NNW 18 30 29.93 1014 10 16.0934 N/A
10:58 pm 22:58 Sunny 48 9 20 -6.5 33 33 NNW 10 17 29.95 1014 10 16.0934 N/A
11:58 pm 23:58 Clear 40 4.7 20 -6.6 44 44 WNW 5 7 29.98 1015 10 16.0934 N/A

Powered by AerisWeather